createdAt,value
2019-01-15T00:01:09.435Z,2.47
2019-01-15T00:03:39.717Z,3.53
2019-01-15T00:06:10.007Z,3.00
2019-01-15T00:08:40.224Z,3.20
2019-01-15T00:11:10.480Z,3.20
2019-01-15T00:13:40.748Z,3.40
2019-01-15T00:16:11.018Z,4.33
2019-01-15T00:18:41.281Z,3.70
2019-01-15T00:21:11.490Z,4.27
2019-01-15T00:23:41.616Z,5.37
2019-01-15T00:26:11.934Z,3.40
2019-01-15T00:28:42.078Z,4.20
2019-01-15T00:31:12.330Z,4.43
2019-01-15T00:33:42.512Z,5.57
2019-01-15T00:36:12.690Z,4.20
2019-01-15T00:38:43.000Z,5.03
2019-01-15T00:41:13.196Z,3.20
2019-01-15T00:43:43.377Z,4.77
2019-01-15T00:46:13.648Z,5.33
2019-01-15T00:48:44.036Z,3.70
2019-01-15T00:51:14.354Z,4.43
2019-01-15T00:53:44.561Z,3.03
2019-01-15T00:56:14.832Z,3.57
2019-01-15T00:58:45.064Z,3.60
2019-01-15T01:01:15.291Z,3.33
2019-01-15T01:03:45.530Z,2.77
2019-01-15T01:06:15.778Z,2.37
2019-01-15T01:08:45.962Z,2.90
2019-01-15T01:11:16.205Z,3.80
2019-01-15T01:13:46.389Z,4.63
2019-01-15T01:16:16.568Z,3.77
2019-01-15T01:18:46.638Z,2.60
2019-01-15T01:21:16.737Z,3.60
2019-01-15T01:23:47.000Z,2.90
2019-01-15T01:26:17.167Z,3.80
2019-01-15T01:28:47.375Z,4.53
2019-01-15T01:31:17.739Z,2.30
2019-01-15T01:33:47.972Z,4.47
2019-01-15T01:36:18.206Z,4.17
2019-01-15T01:38:48.361Z,3.00
2019-01-15T01:41:18.706Z,5.17
2019-01-15T01:43:48.871Z,4.83
2019-01-15T01:46:19.191Z,4.70
2019-01-15T01:48:49.417Z,5.43
2019-01-15T01:51:19.614Z,5.70
2019-01-15T01:53:49.890Z,4.93
2019-01-15T01:56:20.186Z,4.80
2019-01-15T01:58:50.359Z,5.50
2019-01-15T02:01:20.737Z,3.30
2019-01-15T02:03:50.919Z,3.27
2019-01-15T02:06:21.121Z,2.97
2019-01-15T02:08:51.286Z,3.60
2019-01-15T02:11:21.569Z,4.43
2019-01-15T02:13:51.665Z,3.63
2019-01-15T02:16:21.893Z,3.30
2019-01-15T02:18:52.069Z,2.83
2019-01-15T02:21:22.380Z,2.67
2019-01-15T02:23:52.673Z,3.77
2019-01-15T02:26:22.997Z,2.53
2019-01-15T02:28:53.279Z,3.10
2019-01-15T02:31:23.554Z,2.77
2019-01-15T02:33:53.831Z,2.20
2019-01-15T02:36:24.115Z,2.77
2019-01-15T02:38:54.364Z,3.30
2019-01-15T02:41:24.666Z,2.30
2019-01-15T02:43:54.961Z,2.57
2019-01-15T02:46:25.584Z,1.67
2019-01-15T02:48:57.264Z,2.13
2019-01-15T02:51:27.568Z,2.20
2019-01-15T02:53:58.838Z,2.00
2019-01-15T02:56:29.161Z,2.87
2019-01-15T02:58:59.502Z,2.57
2019-01-15T03:01:29.672Z,2.27
2019-01-15T03:03:59.987Z,2.57
2019-01-15T03:06:30.245Z,2.43
2019-01-15T03:09:00.460Z,2.03
2019-01-15T03:11:30.751Z,2.30
2019-01-15T03:14:01.017Z,2.93
2019-01-15T03:16:31.309Z,1.97
2019-01-15T03:19:01.559Z,2.40
2019-01-15T03:21:34.217Z,2.07
2019-01-15T03:24:04.609Z,2.47
2019-01-15T03:26:34.777Z,2.00
2019-01-15T03:29:04.965Z,2.20
2019-01-15T03:31:35.212Z,2.93
2019-01-15T03:34:05.507Z,2.67
2019-01-15T03:36:37.715Z,2.63
2019-01-15T03:39:09.752Z,2.60
2019-01-15T03:41:40.223Z,2.37
2019-01-15T03:44:10.486Z,2.70
2019-01-15T03:46:42.243Z,1.50
2019-01-15T03:49:12.485Z,2.10
2019-01-15T03:51:42.699Z,2.37
2019-01-15T03:54:12.917Z,2.00
2019-01-15T03:56:43.220Z,2.30
2019-01-15T03:59:13.469Z,3.00
2019-01-15T04:01:43.587Z,2.20
2019-01-15T04:04:13.803Z,2.00
2019-01-15T04:06:44.073Z,2.30
2019-01-15T04:09:14.350Z,2.40
2019-01-15T04:11:44.690Z,2.00
2019-01-15T04:14:14.923Z,2.80
2019-01-15T04:16:45.189Z,2.00
2019-01-15T04:19:15.496Z,2.50
2019-01-15T04:21:45.819Z,2.07
2019-01-15T04:24:16.132Z,1.90
2019-01-15T04:26:46.321Z,2.47
2019-01-15T04:29:16.538Z,1.50
2019-01-15T04:31:46.785Z,1.77
2019-01-15T04:34:16.994Z,2.23
2019-01-15T04:36:47.311Z,2.23
2019-01-15T04:39:17.526Z,2.40
2019-01-15T04:41:47.805Z,2.03
2019-01-15T04:44:18.011Z,1.63
2019-01-15T04:46:48.332Z,1.27
2019-01-15T04:49:18.615Z,1.97
2019-01-15T04:51:48.791Z,1.27
2019-01-15T04:54:19.093Z,1.63
2019-01-15T04:56:49.878Z,2.20
2019-01-15T04:59:20.467Z,2.13
2019-01-15T05:01:50.758Z,1.50
2019-01-15T05:04:20.971Z,2.33
2019-01-15T05:06:51.292Z,1.60
2019-01-15T05:09:21.563Z,1.70
2019-01-15T05:11:51.826Z,1.80
2019-01-15T05:14:22.055Z,1.30
2019-01-15T05:16:52.253Z,1.40
2019-01-15T05:19:22.557Z,1.70
2019-01-15T05:21:52.829Z,1.30
2019-01-15T05:24:23.147Z,1.60
2019-01-15T05:26:53.488Z,1.57
2019-01-15T05:29:23.708Z,1.90
2019-01-15T05:31:53.943Z,2.53
2019-01-15T05:34:24.149Z,1.87
2019-01-15T05:36:54.358Z,1.77
2019-01-15T05:39:24.648Z,2.07
2019-01-15T05:41:54.849Z,1.27
2019-01-15T05:44:25.082Z,1.50
2019-01-15T05:46:55.497Z,2.83
2019-01-15T05:49:25.809Z,2.00
2019-01-15T05:51:56.036Z,1.80
2019-01-15T05:54:26.264Z,1.80
2019-01-15T05:56:56.584Z,1.77
2019-01-15T05:59:26.736Z,2.00
2019-01-15T06:01:56.983Z,2.00
2019-01-15T06:04:27.281Z,2.57
2019-01-15T06:06:57.451Z,1.17
2019-01-15T06:09:27.550Z,2.10
2019-01-15T06:11:57.762Z,1.50
2019-01-15T06:14:28.044Z,1.50
2019-01-15T06:16:58.226Z,1.47
2019-01-15T06:19:28.430Z,1.90
2019-01-15T06:21:58.576Z,1.53
2019-01-15T06:24:28.707Z,1.50
2019-01-15T06:26:58.890Z,2.10
2019-01-15T06:29:29.074Z,1.50
2019-01-15T06:32:00.272Z,1.63
2019-01-15T06:34:30.417Z,1.50
2019-01-15T06:37:00.622Z,1.90
2019-01-15T06:39:30.928Z,2.00
2019-01-15T06:42:02.257Z,1.80
2019-01-15T06:44:32.610Z,1.70
2019-01-15T06:47:03.182Z,1.90
2019-01-15T06:49:34.024Z,2.03
2019-01-15T06:52:04.212Z,1.87
2019-01-15T06:54:34.346Z,2.67
2019-01-15T06:57:04.595Z,2.00
2019-01-15T06:59:36.040Z,1.70
2019-01-15T07:02:06.268Z,1.90
2019-01-15T07:04:43.635Z,2.40
2019-01-15T07:07:08.328Z,2.17
2019-01-15T07:09:38.575Z,2.70
2019-01-15T07:12:08.752Z,3.20
2019-01-15T07:14:39.060Z,2.90
2019-01-15T07:17:09.265Z,2.90
2019-01-15T07:19:39.493Z,2.87
2019-01-15T07:22:09.728Z,3.17
2019-01-15T07:24:39.858Z,3.23
2019-01-15T07:27:10.090Z,3.97
2019-01-15T07:29:40.382Z,3.70
2019-01-15T07:32:10.981Z,4.17
2019-01-15T07:34:41.388Z,5.10
2019-01-15T07:37:11.778Z,4.00
2019-01-15T07:39:42.204Z,4.40
2019-01-15T07:42:12.744Z,5.33
2019-01-15T07:44:45.162Z,5.50
2019-01-15T07:47:16.034Z,5.97
2019-01-15T07:49:46.542Z,5.23
2019-01-15T07:52:17.132Z,5.23
2019-01-15T07:54:47.611Z,6.53
2019-01-15T07:57:18.104Z,6.60
2019-01-15T07:59:48.888Z,6.73
2019-01-15T08:02:21.187Z,7.50
2019-01-15T08:04:52.275Z,8.50
2019-01-15T08:07:22.948Z,9.80
2019-01-15T08:09:53.787Z,10.40
2019-01-15T08:12:24.404Z,9.63
2019-01-15T08:14:55.036Z,9.77
2019-01-15T08:17:25.744Z,10.43
2019-01-15T08:19:56.718Z,13.60
2019-01-15T08:22:27.537Z,11.20
2019-01-15T08:24:58.303Z,13.17
2019-01-15T08:27:29.309Z,12.63
2019-01-15T08:30:00.185Z,12.20
2019-01-15T08:32:31.152Z,11.20
2019-01-15T08:35:01.840Z,12.23
2019-01-15T08:37:32.609Z,13.60
2019-01-15T08:40:03.234Z,13.57
2019-01-15T08:42:34.038Z,12.40
2019-01-15T08:45:05.999Z,13.20
2019-01-15T08:47:39.725Z,13.00
2019-01-15T08:50:11.521Z,12.17
2019-01-15T08:52:42.382Z,11.77
2019-01-15T08:55:12.958Z,12.30
2019-01-15T08:57:43.638Z,12.50
2019-01-15T09:00:14.419Z,12.23
2019-01-15T09:02:45.205Z,12.30
2019-01-15T09:05:15.878Z,13.17
2019-01-15T09:07:46.638Z,13.73
2019-01-15T09:10:17.795Z,14.17
2019-01-15T09:12:49.062Z,14.03
2019-01-15T09:15:19.814Z,13.67
2019-01-15T09:17:50.370Z,13.80
2019-01-15T09:20:21.206Z,14.60
2019-01-15T09:22:52.143Z,14.80
2019-01-15T09:25:22.804Z,14.03
2019-01-15T09:27:53.525Z,16.17
2019-01-15T09:30:24.100Z,16.50
2019-01-15T09:32:54.849Z,15.73
2019-01-15T09:35:25.370Z,13.90
2019-01-15T09:37:58.801Z,15.67
2019-01-15T09:40:29.323Z,15.07
2019-01-15T09:42:59.895Z,14.93
2019-01-15T09:45:30.255Z,13.83
2019-01-15T09:48:14.393Z,13.63
2019-01-15T09:50:44.887Z,14.73
2019-01-15T09:53:15.468Z,14.87
2019-01-15T09:55:46.141Z,15.30
2019-01-15T09:58:16.722Z,16.43
2019-01-15T10:00:47.481Z,16.23
2019-01-15T10:03:17.967Z,15.97
2019-01-15T10:05:48.516Z,15.57
2019-01-15T10:08:19.155Z,14.50
2019-01-15T10:10:49.766Z,14.43
2019-01-15T10:13:20.387Z,16.60
2019-01-15T10:15:51.033Z,16.37
2019-01-15T10:18:21.619Z,16.47
2019-01-15T10:20:52.151Z,16.27
2019-01-15T10:23:22.677Z,15.07
2019-01-15T10:25:53.183Z,16.20
2019-01-15T10:28:23.619Z,16.90
2019-01-15T10:31:30.849Z,16.97
2019-01-15T10:34:12.892Z,16.67
2019-01-15T10:36:41.753Z,16.07
2019-01-15T10:39:13.470Z,16.07
2019-01-15T10:41:44.111Z,18.13
2019-01-15T10:44:14.749Z,16.63
2019-01-15T10:46:45.329Z,20.20
2019-01-15T10:49:15.915Z,18.00
2019-01-15T10:51:46.362Z,20.63
2019-01-15T10:54:16.983Z,18.30
2019-01-15T10:56:47.437Z,16.47
2019-01-15T10:59:17.721Z,21.07
2019-01-15T11:01:48.443Z,17.97
2019-01-15T11:04:19.086Z,18.07
2019-01-15T11:06:49.803Z,18.57
2019-01-15T11:09:20.303Z,18.93
2019-01-15T11:11:50.868Z,17.67
2019-01-15T11:14:22.645Z,17.73
2019-01-15T11:16:54.441Z,18.57
2019-01-15T11:19:25.232Z,18.73
2019-01-15T11:21:55.777Z,19.27
2019-01-15T11:24:26.634Z,19.00
2019-01-15T11:26:57.311Z,19.13
2019-01-15T11:29:27.944Z,18.97
2019-01-15T11:31:58.709Z,17.77
2019-01-15T11:34:29.354Z,17.20
2019-01-15T11:37:00.074Z,21.03
2019-01-15T11:39:30.642Z,18.23
2019-01-15T11:42:01.274Z,18.67
2019-01-15T11:44:31.835Z,19.60
2019-01-15T11:47:02.708Z,18.90
2019-01-15T11:49:33.299Z,20.33
2019-01-15T11:52:03.837Z,21.97
2019-01-15T11:54:34.510Z,19.83
2019-01-15T11:57:05.197Z,18.37
2019-01-15T11:59:35.631Z,17.93
2019-01-15T12:02:34.046Z,18.70
2019-01-15T12:05:24.096Z,17.27
2019-01-15T12:08:13.967Z,18.23
2019-01-15T12:11:06.675Z,16.27
2019-01-15T12:13:59.242Z,17.63
2019-01-15T12:17:01.374Z,17.57
2019-01-15T12:19:59.455Z,16.53
2019-01-15T12:22:49.165Z,16.17
2019-01-15T12:25:56.848Z,16.53
2019-01-15T12:29:04.506Z,15.50
2019-01-15T12:32:11.992Z,15.47
2019-01-15T12:34:59.816Z,16.37
2019-01-15T12:37:47.590Z,14.30
2019-01-15T12:40:39.658Z,16.33
2019-01-15T12:43:27.508Z,16.50
2019-01-15T12:46:35.044Z,15.40
2019-01-15T12:49:20.612Z,15.07
2019-01-15T12:52:11.626Z,14.90
2019-01-15T12:55:01.210Z,15.73
2019-01-15T12:57:53.286Z,14.50
2019-01-15T13:00:54.610Z,14.27
2019-01-15T13:03:42.403Z,14.83
2019-01-15T13:06:49.924Z,14.33
2019-01-15T13:09:46.080Z,14.13
2019-01-15T13:12:34.241Z,14.10
2019-01-15T13:15:26.015Z,13.03
2019-01-15T13:18:15.177Z,12.60
2019-01-15T13:21:15.122Z,12.07
2019-01-15T13:24:03.022Z,13.27
2019-01-15T13:26:44.169Z,11.50
2019-01-15T13:29:42.491Z,12.67
2019-01-15T13:32:34.336Z,11.70
2019-01-15T13:35:42.520Z,12.40
2019-01-15T13:38:43.783Z,12.10
2019-01-15T13:41:45.296Z,12.87
2019-01-15T13:44:44.120Z,11.93
2019-01-15T13:47:42.383Z,13.60
2019-01-15T13:50:32.313Z,12.47
2019-01-15T13:53:24.004Z,11.83
2019-01-15T13:56:14.576Z,12.17
2019-01-15T13:59:04.163Z,13.30
2019-01-15T14:01:45.395Z,12.20
2019-01-15T14:04:34.991Z,12.30
2019-01-15T14:07:31.100Z,11.23
2019-01-15T14:10:24.266Z,10.87
2019-01-15T14:13:28.982Z,12.20
2019-01-15T14:16:21.801Z,10.30
2019-01-15T14:19:15.361Z,10.57
2019-01-15T14:22:07.943Z,10.70
2019-01-15T14:24:58.526Z,10.00
2019-01-15T14:27:47.209Z,9.80
2019-01-15T14:30:47.122Z,9.20
2019-01-15T14:33:42.355Z,9.60
2019-01-15T14:36:31.647Z,9.60
2019-01-15T14:39:24.069Z,9.57
2019-01-15T14:42:16.831Z,7.70
2019-01-15T14:45:12.029Z,8.87
2019-01-15T14:47:58.698Z,7.53
2019-01-15T14:50:47.897Z,8.53
2019-01-15T14:53:36.621Z,8.43
2019-01-15T14:56:23.013Z,8.63
2019-01-15T14:59:12.327Z,8.73
2019-01-15T15:02:01.723Z,8.57
2019-01-15T15:05:00.013Z,9.23
2019-01-15T15:07:58.429Z,9.23
2019-01-15T15:10:53.709Z,9.13
2019-01-15T15:13:41.731Z,10.17
2019-01-15T15:16:29.668Z,9.73
2019-01-15T15:19:24.803Z,9.57
2019-01-15T15:22:12.785Z,10.07
2019-01-15T15:25:00.831Z,10.40
2019-01-15T15:27:43.887Z,10.63
2019-01-15T15:30:38.650Z,9.63
2019-01-15T15:33:33.987Z,10.23
2019-01-15T15:36:29.458Z,10.43
2019-01-15T15:39:17.101Z,10.37
2019-01-15T15:42:21.374Z,12.20
2019-01-15T15:45:10.518Z,10.97
2019-01-15T15:48:05.699Z,9.73
2019-01-15T15:50:55.527Z,10.00
2019-01-15T15:53:50.722Z,10.50
2019-01-15T15:56:38.687Z,9.30
2019-01-15T15:59:26.403Z,9.40
2019-01-15T16:02:18.478Z,9.33
2019-01-15T16:05:22.904Z,10.40
2019-01-15T16:08:12.132Z,9.80
2019-01-15T16:11:04.023Z,10.90
2019-01-15T16:13:54.327Z,8.97
2019-01-15T16:16:42.330Z,10.53
2019-01-15T16:19:31.551Z,10.00
2019-01-15T16:22:19.407Z,9.87
2019-01-15T16:25:20.851Z,10.03
2019-01-15T16:28:05.002Z,10.73
2019-01-15T16:30:52.831Z,10.03
2019-01-15T16:33:41.961Z,10.37
2019-01-15T16:36:29.928Z,9.67
2019-01-15T16:39:13.805Z,10.40
2019-01-15T16:42:15.173Z,10.70
2019-01-15T16:45:04.439Z,9.90
2019-01-15T16:48:05.809Z,11.53
2019-01-15T16:50:43.980Z,12.20
2019-01-15T16:53:35.975Z,11.50
2019-01-15T16:56:39.108Z,11.37
2019-01-15T16:59:22.421Z,12.17
2019-01-15T17:02:17.305Z,12.90
2019-01-15T17:05:17.605Z,11.73
2019-01-15T17:08:09.193Z,13.13
2019-01-15T17:11:04.442Z,12.20
2019-01-15T17:13:49.524Z,12.57
2019-01-15T17:16:38.655Z,14.17
2019-01-15T17:19:25.660Z,14.17
2019-01-15T17:22:13.587Z,14.97
2019-01-15T17:25:11.792Z,12.37
2019-01-15T17:28:07.053Z,14.47
2019-01-15T17:30:56.308Z,13.50
2019-01-15T17:33:47.353Z,14.87
2019-01-15T17:36:33.646Z,14.93
2019-01-15T17:39:22.819Z,16.20
2019-01-15T17:42:20.746Z,17.77
2019-01-15T17:45:22.015Z,17.83
2019-01-15T17:48:20.248Z,16.53
2019-01-15T17:51:07.839Z,17.50
2019-01-15T17:53:52.599Z,18.07
2019-01-15T17:56:50.848Z,18.77
2019-01-15T17:59:38.434Z,16.83
2019-01-15T18:02:43.251Z,19.37
2019-01-15T18:05:30.925Z,18.37
2019-01-15T18:08:28.738Z,17.70
2019-01-15T18:11:16.475Z,17.60
2019-01-15T18:14:03.939Z,17.90
2019-01-15T18:16:51.687Z,19.50
2019-01-15T18:19:45.943Z,20.03
2019-01-15T18:22:37.748Z,18.70
2019-01-15T18:25:34.366Z,19.37
2019-01-15T18:28:26.515Z,20.10
2019-01-15T18:31:27.631Z,21.37
2019-01-15T18:34:25.550Z,22.00
2019-01-15T18:37:20.544Z,20.03
2019-01-15T18:40:03.368Z,20.17
2019-01-15T18:42:58.548Z,21.83
2019-01-15T18:45:50.500Z,20.77
2019-01-15T18:48:38.121Z,21.83
2019-01-15T18:51:21.356Z,21.23
2019-01-15T18:54:22.460Z,21.63
2019-01-15T18:57:11.757Z,23.57
2019-01-15T19:00:00.966Z,22.03
2019-01-15T19:02:40.580Z,26.57
2019-01-15T19:05:29.730Z,24.87
2019-01-15T19:08:17.495Z,24.03
2019-01-15T19:11:06.927Z,22.67
2019-01-15T19:13:54.768Z,26.27
2019-01-15T19:16:49.946Z,26.93
2019-01-15T19:19:27.990Z,23.30
2019-01-15T19:22:12.025Z,26.93
2019-01-15T19:25:01.302Z,27.17
2019-01-15T19:27:59.271Z,26.07
2019-01-15T19:30:46.925Z,26.23
2019-01-15T19:33:39.049Z,25.83
2019-01-15T19:36:20.598Z,26.60
2019-01-15T19:39:00.220Z,26.57
2019-01-15T19:41:48.071Z,23.80
2019-01-15T19:44:55.364Z,23.90
2019-01-15T19:48:00.004Z,25.00
2019-01-15T19:50:47.782Z,23.80
2019-01-15T19:53:37.077Z,25.10
2019-01-15T19:56:29.160Z,25.03
2019-01-15T19:59:17.190Z,25.60
2019-01-15T20:02:04.880Z,25.03
2019-01-15T20:05:12.137Z,25.87
2019-01-15T20:08:07.013Z,25.10
2019-01-15T20:10:54.795Z,24.07
2019-01-15T20:13:42.660Z,23.93
2019-01-15T20:16:38.162Z,23.23
2019-01-15T20:19:42.402Z,23.80
2019-01-15T20:22:40.981Z,23.57
2019-01-15T20:25:28.809Z,23.83
2019-01-15T20:28:27.138Z,22.77
2019-01-15T20:31:34.406Z,24.43
2019-01-15T20:34:26.308Z,24.77
2019-01-15T20:37:21.722Z,21.23
2019-01-15T20:40:13.797Z,25.70
2019-01-15T20:42:51.462Z,20.37
2019-01-15T20:45:40.795Z,24.20
2019-01-15T20:48:50.002Z,22.47
2019-01-15T20:51:37.935Z,22.07
2019-01-15T20:54:22.165Z,22.43
2019-01-15T20:57:29.679Z,21.03
2019-01-15T21:00:34.045Z,22.47
2019-01-15T21:03:23.381Z,22.33
2019-01-15T21:06:15.344Z,21.57
2019-01-15T21:09:06.364Z,22.93
2019-01-15T21:11:50.014Z,20.10
2019-01-15T21:14:57.498Z,22.00
2019-01-15T21:17:45.452Z,20.23
2019-01-15T21:20:40.583Z,20.70
2019-01-15T21:23:22.382Z,19.80
2019-01-15T21:26:11.600Z,17.07
2019-01-15T21:28:59.399Z,18.30
2019-01-15T21:31:42.472Z,18.10
2019-01-15T21:34:46.774Z,19.37
2019-01-15T21:37:32.550Z,15.93
2019-01-15T21:40:33.860Z,16.30
2019-01-15T21:43:30.333Z,15.70
2019-01-15T21:46:13.457Z,17.17
2019-01-15T21:49:10.117Z,14.20
2019-01-15T21:52:11.308Z,15.37
2019-01-15T21:55:00.578Z,14.73
2019-01-15T21:57:57.783Z,14.30
2019-01-15T22:00:49.341Z,13.27
2019-01-15T22:03:44.356Z,14.60
2019-01-15T22:06:31.910Z,14.70
2019-01-15T22:09:19.938Z,14.83
2019-01-15T22:12:15.214Z,14.80
2019-01-15T22:15:16.363Z,16.80
2019-01-15T22:18:08.616Z,14.43
2019-01-15T22:20:56.299Z,13.60
2019-01-15T22:23:45.510Z,14.57
2019-01-15T22:26:33.347Z,15.10
2019-01-15T22:29:25.534Z,14.73
2019-01-15T22:32:33.402Z,15.33
2019-01-15T22:35:25.551Z,15.87
2019-01-15T22:38:17.935Z,15.90
2019-01-15T22:41:14.622Z,15.63
2019-01-15T22:44:07.666Z,16.93
2019-01-15T22:47:03.237Z,15.43
2019-01-15T22:49:50.973Z,16.43
2019-01-15T22:52:49.139Z,16.53
2019-01-15T22:55:44.652Z,13.50
2019-01-15T22:58:39.768Z,17.57
2019-01-15T23:01:31.857Z,15.13
2019-01-15T23:04:18.591Z,13.63
2019-01-15T23:07:10.525Z,16.60
2019-01-15T23:09:59.793Z,15.20
2019-01-15T23:12:54.955Z,16.17
2019-01-15T23:15:49.680Z,17.37
2019-01-15T23:18:37.482Z,17.10
2019-01-15T23:21:25.511Z,17.00
2019-01-15T23:24:26.743Z,17.97
2019-01-15T23:27:16.363Z,19.03
2019-01-15T23:30:05.617Z,18.93
2019-01-15T23:32:53.538Z,19.77
2019-01-15T23:35:41.334Z,19.90
2019-01-15T23:38:29.106Z,19.73
2019-01-15T23:41:09.442Z,23.00
2019-01-15T23:43:57.248Z,21.13
2019-01-15T23:46:51.089Z,22.03
2019-01-15T23:49:30.578Z,24.77
2019-01-15T23:52:18.438Z,23.43
2019-01-15T23:55:10.313Z,22.10
2019-01-15T23:57:59.564Z,22.87
